Time;durP1;ratioP1;P1;durP2;ratioP2;P2;SDS_P1;SDS_P2;PMS_P1;PMS_P2;Temp;Humidity;BMP_temperature;BMP_pressure;BME280_temperature;BME280_humidity;BME280_pressure;Samples;Min_cycle;Max_cycle;Signal;HPM_P1;HPM_P2
2022/06/12 00:00:31;;;;;;;;;;;;;;;27.46;38.53;94842.50;5039732;28;8237;-58
2022/06/12 00:03:00;;;;;;;;;;;;;;;27.45;39.14;94838.97;5047042;28;9054;-58
2022/06/12 00:05:37;;;;;;;;;;;;;;;27.45;38.68;94838.97;5050406;28;9453;-58
2022/06/12 00:08:05;;;;;;;;;;;;;;;27.47;38.69;94841.25;5036363;28;8496;-59
2022/06/12 00:10:45;;;;;;;;;;;;;;;27.47;38.79;94844.75;5045547;28;7238;-58
2022/06/12 00:13:27;;;;;;;;;;;;;;;27.47;39.19;94841.25;5039243;28;9075;-58
2022/06/12 00:16:07;;;;;;;;;;;;;;;27.48;38.98;94842.75;5032262;28;7016;-58
2022/06/12 00:18:33;;;;;;;;;;;;;;;27.44;39.01;94831.97;5032396;28;7530;-58
2022/06/12 00:21:13;;;;;;;;;;;;;;;27.45;39.16;94825.16;5041693;28;7213;-58
2022/06/12 00:23:48;;;;;;;;;;;;;;;27.45;38.52;94822.41;5023775;28;7346;-59
2022/06/12 00:26:24;;;;;;;;;;;;;;;27.45;38.94;94825.16;5036691;28;8780;-58
2022/06/12 00:29:27;;;;;;;;;;;;;;;27.43;38.35;94824.94;5017819;28;7504;-58
2022/06/12 00:32:14;;;;;;;;;;;;;;;27.44;39.17;94825.69;4947555;28;8849;-58
2022/06/12 00:34:53;;;;;;;;;;;;;;;27.42;38.43;94826.22;4960774;28;7319;-58
2022/06/12 00:37:48;;;;;;;;;;;;;;;27.42;38.72;94826.22;4947216;28;7182;-58
2022/06/12 00:40:18;;;;;;;;;;;;;;;27.41;38.44;94830.22;4919080;29;7228;-58
2022/06/12 00:42:49;;;;;;;;;;;;;;;27.41;38.57;94826.72;4927025;28;9731;-58
2022/06/12 00:45:35;;;;;;;;;;;;;;;27.41;38.52;94833.00;4932671;28;7492;-58
2022/06/12 00:48:33;;;;;;;;;;;;;;;27.39;38.59;94827.22;4924556;29;9425;-58
2022/06/12 00:51:36;;;;;;;;;;;;;;;27.40;39.13;94833.50;4876446;29;8787;-58
2022/06/12 00:54:10;;;;;;;;;;;;;;;27.39;39.10;94832.00;4784918;29;7692;-58
2022/06/12 00:57:03;;;;;;;;;;;;;;;27.39;39.25;94827.22;5030920;28;6705;-56
2022/06/12 00:59:42;;;;;;;;;;;;;;;27.39;38.50;94832.00;5017708;28;9154;-56
2022/06/12 01:02:13;;;;;;;;;;;;;;;27.37;39.04;94827.00;5005653;28;7247;-56
2022/06/12 01:07:34;;;;;;;;;;;;;;;27.36;38.92;94833.03;5005571;28;9489;-57
2022/06/12 01:10:06;;;;;;;;;;;;;;;27.34;39.11;94825.22;4996851;28;8742;-58
2022/06/12 01:12:48;;;;;;;;;;;;;;;27.33;38.52;94823.72;5004632;28;9245;-58
2022/06/12 01:15:22;;;;;;;;;;;;;;;27.34;39.06;94825.22;5001375;28;7186;-58
2022/06/12 01:17:53;;;;;;;;;;;;;;;27.34;39.17;94822.44;5015450;28;7158;-58
2022/06/12 01:20:25;;;;;;;;;;;;;;;27.32;38.65;94818.69;4988985;28;8082;-58
2022/06/12 01:23:11;;;;;;;;;;;;;;;27.33;38.37;94811.91;4998455;28;7360;-58
2022/06/12 01:26:11;;;;;;;;;;;;;;;27.31;38.72;94817.22;5011678;28;7465;-58
2022/06/12 01:28:58;;;;;;;;;;;;;;;27.29;39.41;94812.22;5005474;28;8935;-58
2022/06/12 01:31:48;;;;;;;;;;;;;;;27.29;39.28;94817.72;4993916;28;7265;-58
2022/06/12 01:35:03;;;;;;;;;;;;;;;27.29;38.70;94809.44;5013861;28;9071;-58
2022/06/12 01:37:53;;;;;;;;;;;;;;;27.29;38.50;94812.22;4996073;28;7312;-58
2022/06/12 01:40:51;;;;;;;;;;;;;;;27.26;39.11;94807.69;4981539;28;9098;-58
2022/06/12 01:43:50;;;;;;;;;;;;;;;27.27;39.46;94806.44;4981582;28;7342;-58
2022/06/12 01:46:54;;;;;;;;;;;;;;;27.25;38.57;94800.66;4975670;28;7270;-58
2022/06/12 01:50:01;;;;;;;;;;;;;;;27.27;39.03;94800.91;4979256;28;9008;-58
2022/06/12 01:52:55;;;;;;;;;;;;;;;27.28;39.22;94798.88;4992807;28;7323;-58
2022/06/12 01:55:34;;;;;;;;;;;;;;;27.25;39.29;94799.94;4988085;28;9088;-58
2022/06/12 01:58:45;;;;;;;;;;;;;;;27.26;39.25;94804.94;5002674;28;9088;-58
2022/06/12 02:01:14;;;;;;;;;;;;;;;27.26;38.59;94806.94;4979916;28;9197;-58
2022/06/12 02:03:54;;;;;;;;;;;;;;;27.25;39.27;94797.16;4969166;28;7271;-58
2022/06/12 02:06:53;;;;;;;;;;;;;;;27.24;38.87;94804.69;4964770;28;7565;-58
2022/06/12 02:09:41;;;;;;;;;;;;;;;27.22;39.18;94800.94;4965068;28;7324;-58
2022/06/12 02:15:13;;;;;;;;;;;;;;;27.21;39.40;94793.94;4969510;28;8640;-58
2022/06/12 02:18:32;;;;;;;;;;;;;;;27.21;39.49;94791.91;4941932;28;9112;-58
2022/06/12 02:21:37;;;;;;;;;;;;;;;27.20;39.30;94793.19;4947699;28;7362;-58
2022/06/12 02:24:43;;;;;;;;;;;;;;;27.20;38.79;94798.69;4893642;29;8241;-58
2022/06/12 02:27:22;;;;;;;;;;;;;;;27.19;39.35;94797.19;4870667;29;8854;-58
2022/06/12 02:30:10;;;;;;;;;;;;;;;27.18;39.04;94798.47;4857362;29;7295;-58
2022/06/12 02:32:57;;;;;;;;;;;;;;;27.17;38.58;94802.47;4877031;29;8787;-58
2022/06/12 02:36:06;;;;;;;;;;;;;;;27.16;38.94;94795.47;4894796;29;7402;-58
2022/06/12 02:39:15;;;;;;;;;;;;;;;27.15;39.40;94799.47;4894312;29;7583;-58
2022/06/12 02:42:13;;;;;;;;;;;;;;;27.16;38.62;94792.72;4839265;29;9427;-58
2022/06/12 02:44:56;;;;;;;;;;;;;;;27.15;39.32;94798.72;4765476;30;7813;-58
2022/06/12 02:47:26;;;;;;;;;;;;;;;27.13;38.75;94792.97;4755274;30;7712;-58
2022/06/12 02:50:14;;;;;;;;;;;;;;;27.12;39.19;94803.25;4768104;30;7779;-58
2022/06/12 02:53:20;;;;;;;;;;;;;;;27.14;38.82;94789.72;5073901;27;6677;-56
2022/06/12 02:56:17;;;;;;;;;;;;;;;27.11;39.33;94789.97;5057837;28;7448;-56
2022/06/12 02:58:57;;;;;;;;;;;;;;;27.11;39.39;94793.47;5061726;28;9034;-56
2022/06/12 03:01:37;;;;;;;;;;;;;;;27.13;38.74;94795.72;5064354;28;6989;-56
2022/06/12 03:04:36;;;;;;;;;;;;;;;27.11;38.84;94804.53;5061247;28;7277;-56
2022/06/12 03:07:39;;;;;;;;;;;;;;;27.09;39.09;94801.53;5011335;28;7593;-56
2022/06/12 03:10:13;;;;;;;;;;;;;;;27.07;38.89;94800.53;4975638;28;7391;-56
2022/06/12 03:13:10;;;;;;;;;;;;;;;27.07;38.74;94804.06;4984118;28;7424;-56
2022/06/12 03:16:07;;;;;;;;;;;;;;;27.07;39.18;94793.00;4987198;28;7560;-56
2022/06/12 03:18:57;;;;;;;;;;;;;;;27.05;39.30;94795.53;4927885;29;8911;-56
2022/06/12 03:21:53;;;;;;;;;;;;;;;27.05;39.28;94798.28;4912403;29;9830;-56
2022/06/12 03:24:53;;;;;;;;;;;;;;;27.05;39.42;94798.28;4929727;29;9180;-56
2022/06/12 03:28:03;;;;;;;;;;;;;;;27.06;39.50;94801.78;4911533;29;7194;-57
2022/06/12 03:30:49;;;;;;;;;;;;;;;27.06;39.51;94805.31;4913459;29;9441;-56
2022/06/12 03:33:47;;;;;;;;;;;;;;;27.03;39.68;94814.63;4927174;29;7238;-56
2022/06/12 03:36:57;;;;;;;;;;;;;;;27.03;39.57;94805.56;4905292;29;7211;-56
2022/06/12 03:39:43;;;;;;;;;;;;;;;27.01;38.92;94811.63;4916479;29;9040;-56
2022/06/12 03:42:53;;;;;;;;;;;;;;;27.01;39.33;94813.63;4913826;29;6998;-56
2022/06/12 03:45:39;;;;;;;;;;;;;;;27.00;38.67;94804.59;4912036;29;7350;-56
2022/06/12 03:48:31;;;;;;;;;;;;;;;27.00;38.98;94801.06;4924088;29;7277;-56
2022/06/12 03:51:24;;;;;;;;;;;;;;;26.99;39.54;94810.63;4907581;28;7236;-56
2022/06/12 03:53:57;;;;;;;;;;;;;;;26.98;39.07;94804.34;4953391;28;9356;-56
2022/06/12 04:00:01;;;;;;;;;;;;;;;26.98;39.14;94811.88;5051522;28;7024;-56
2022/06/12 04:02:33;;;;;;;;;;;;;;;26.97;38.99;94815.91;5071691;28;7087;-56
2022/06/12 04:05:11;;;;;;;;;;;;;;;26.96;39.18;94808.88;5037507;28;9144;-56
2022/06/12 04:07:59;;;;;;;;;;;;;;;26.97;38.77;94819.41;5043957;28;7261;-56
2022/06/12 04:10:32;;;;;;;;;;;;;;;26.97;38.71;94824.91;5043792;28;7234;-56
2022/06/12 04:13:02;;;;;;;;;;;;;;;26.94;39.46;94814.91;5041019;28;6869;-56
2022/06/12 04:15:55;;;;;;;;;;;;;;;26.96;39.42;94820.69;5041706;28;9074;-56
2022/06/12 04:18:42;;;;;;;;;;;;;;;26.97;38.79;94818.66;5041080;28;7085;-56
2022/06/12 04:21:33;;;;;;;;;;;;;;;26.97;39.14;94813.16;5042177;28;7202;-56
2022/06/12 04:24:47;;;;;;;;;;;;;;;26.96;38.83;94814.41;5039040;28;7022;-56
2022/06/12 04:27:41;;;;;;;;;;;;;;;26.94;39.27;94814.16;4994073;28;9125;-56
2022/06/12 04:30:28;;;;;;;;;;;;;;;26.94;39.40;94811.41;4996474;28;9040;-56
2022/06/12 04:33:21;;;;;;;;;;;;;;;26.95;39.41;94813.63;4984785;28;7310;-56
2022/06/12 04:35:55;;;;;;;;;;;;;;;26.92;39.46;94806.41;4984824;28;9135;-56
2022/06/12 04:38:35;;;;;;;;;;;;;;;26.96;39.42;94811.63;4983714;28;9498;-57
2022/06/12 04:41:01;;;;;;;;;;;;;;;26.97;39.06;94811.13;5008116;28;7346;-56
2022/06/12 04:43:28;;;;;;;;;;;;;;;26.97;38.86;94813.88;4991636;28;7265;-56
2022/06/12 04:45:58;;;;;;;;;;;;;;;26.97;39.04;94816.63;4991458;28;7272;-56
2022/06/12 04:48:35;;;;;;;;;;;;;;;27.00;39.31;94812.88;5001989;28;9138;-56
2022/06/12 04:51:17;;;;;;;;;;;;;;;27.03;38.80;94819.38;5005511;28;9319;-56
2022/06/12 04:53:46;;;;;;;;;;;;;;;27.03;38.83;94822.16;4981015;28;7881;-56
2022/06/12 04:56:14;;;;;;;;;;;;;;;27.02;39.21;94813.09;4994253;28;7259;-56
2022/06/12 04:58:41;;;;;;;;;;;;;;;27.02;38.94;94815.09;4966042;28;7531;-56
2022/06/12 05:01:10;;;;;;;;;;;;;;;27.04;38.88;94807.81;4983896;28;9273;-56
2022/06/12 05:03:37;;;;;;;;;;;;;;;27.04;38.96;94807.81;4989307;28;7716;-56
2022/06/12 05:06:06;;;;;;;;;;;;;;;27.05;38.43;94803.06;5024816;28;7248;-56
2022/06/12 05:08:34;;;;;;;;;;;;;;;27.04;39.17;94807.81;5013336;28;7941;-56
2022/06/12 05:11:01;;;;;;;;;;;;;;;27.03;39.02;94805.56;5021326;28;7254;-56
2022/06/12 05:13:32;;;;;;;;;;;;;;;27.00;38.57;94809.34;5013974;28;7244;-56
2022/06/12 05:16:02;;;;;;;;;;;;;;;27.00;38.43;94809.34;5020127;28;8760;-56
2022/06/12 05:18:33;;;;;;;;;;;;;;;27.02;38.43;94821.38;5025337;28;7974;-56
2022/06/12 05:21:05;;;;;;;;;;;;;;;27.02;39.05;94815.88;5022518;28;9505;-56
2022/06/12 05:23:44;;;;;;;;;;;;;;;27.00;39.08;94821.16;5018800;28;7267;-56
2022/06/12 05:26:15;;;;;;;;;;;;;;;26.99;38.79;94821.66;5023043;28;7273;-56
2022/06/12 05:28:44;;;;;;;;;;;;;;;26.97;39.02;94832.47;5013865;28;7060;-56
2022/06/12 05:31:22;;;;;;;;;;;;;;;26.96;38.51;94828.97;5017930;28;7474;-56
2022/06/12 05:33:54;;;;;;;;;;;;;;;26.95;38.94;94821.91;5037988;28;7518;-56
2022/06/12 05:36:23;;;;;;;;;;;;;;;26.94;38.96;94828.72;5020608;28;9461;-56
2022/06/12 05:38:52;;;;;;;;;;;;;;;26.96;39.00;94828.19;5023351;28;7255;-56
2022/06/12 05:41:19;;;;;;;;;;;;;;;26.93;39.40;94821.69;5015782;28;9690;-56
2022/06/12 05:43:46;;;;;;;;;;;;;;;26.94;38.83;94831.47;5019423;28;8813;-56
2022/06/12 05:46:15;;;;;;;;;;;;;;;26.95;39.33;94821.19;5022660;28;7683;-56
2022/06/12 05:48:46;;;;;;;;;;;;;;;26.94;39.33;94823.19;5023781;28;8728;-56
2022/06/12 05:51:37;;;;;;;;;;;;;;;26.93;39.30;94818.91;5018673;28;9053;-56
2022/06/12 05:54:05;;;;;;;;;;;;;;;26.92;39.42;94827.72;5046780;28;9580;-57
2022/06/12 05:56:32;;;;;;;;;;;;;;;26.94;39.57;94825.97;5050370;28;7276;-56
2022/06/12 05:59:04;;;;;;;;;;;;;;;26.94;39.55;94833.47;5045447;28;7280;-56
2022/06/12 06:01:33;;;;;;;;;;;;;;;26.92;38.85;94834.72;5038738;28;7579;-56
2022/06/12 06:04:00;;;;;;;;;;;;;;;26.93;38.64;94835.47;5035583;28;7499;-56
2022/06/12 06:06:42;;;;;;;;;;;;;;;26.94;39.43;94836.25;5035299;28;9045;-57
2022/06/12 06:09:08;;;;;;;;;;;;;;;26.94;38.76;94833.47;5033368;28;9591;-56
2022/06/12 06:11:47;;;;;;;;;;;;;;;26.92;39.38;94839.53;5046402;28;7323;-56
2022/06/12 06:14:14;;;;;;;;;;;;;;;26.92;39.17;94834.72;5046248;28;7101;-56
2022/06/12 06:16:49;;;;;;;;;;;;;;;26.92;39.07;94836.75;5033602;28;9555;-56
2022/06/12 06:19:17;;;;;;;;;;;;;;;26.93;38.77;94841.00;5047529;28;9236;-56
2022/06/12 06:21:49;;;;;;;;;;;;;;;26.91;39.07;94843.53;5038876;28;7254;-56
2022/06/12 06:24:17;;;;;;;;;;;;;;;26.90;39.00;94836.53;5045312;28;9106;-56
2022/06/12 06:26:43;;;;;;;;;;;;;;;26.90;39.01;94847.56;5046481;28;7305;-56
2022/06/12 06:29:10;;;;;;;;;;;;;;;26.90;38.72;94853.09;5042051;28;8820;-56
2022/06/12 06:31:42;;;;;;;;;;;;;;;26.91;38.45;94851.81;5054139;28;9727;-56
2022/06/12 06:34:23;;;;;;;;;;;;;;;26.91;38.77;94860.09;5039956;28;7215;-56
2022/06/12 06:36:53;;;;;;;;;;;;;;;26.91;38.48;94857.31;5042339;28;9263;-57
2022/06/12 06:39:23;;;;;;;;;;;;;;;26.90;38.69;94864.13;5034776;28;7083;-57
2022/06/12 06:41:49;;;;;;;;;;;;;;;26.90;38.45;94853.81;5046125;28;9167;-57
2022/06/12 06:47:00;;;;;;;;;;;;;;;26.88;38.31;94859.09;5037116;28;9139;-57
2022/06/12 06:49:29;;;;;;;;;;;;;;;26.89;39.04;94859.84;5042892;28;6934;-57
2022/06/12 06:51:55;;;;;;;;;;;;;;;26.88;38.18;94858.34;5040967;28;7256;-58
2022/06/12 06:54:23;;;;;;;;;;;;;;;26.87;38.27;94865.13;5037128;28;7315;-58
2022/06/12 06:56:50;;;;;;;;;;;;;;;26.89;37.95;94862.59;5046290;28;8823;-57
2022/06/12 06:59:19;;;;;;;;;;;;;;;26.91;38.47;94857.31;5045339;28;7139;-57
2022/06/12 07:01:45;;;;;;;;;;;;;;;26.90;37.92;94856.56;5049930;28;7019;-57
2022/06/12 07:04:12;;;;;;;;;;;;;;;26.91;38.27;94865.59;5044007;28;7779;-57
2022/06/12 07:06:40;;;;;;;;;;;;;;;26.90;38.57;94864.13;5037230;28;7219;-57
2022/06/12 07:09:09;;;;;;;;;;;;;;;26.89;37.76;94860.59;5045913;28;8793;-58
2022/06/12 07:11:39;;;;;;;;;;;;;;;26.90;38.06;94864.13;5037661;28;7635;-58
2022/06/12 07:14:09;;;;;;;;;;;;;;;26.88;38.02;94856.31;5053067;28;7080;-58
2022/06/12 07:16:38;;;;;;;;;;;;;;;26.91;38.21;94865.59;5045753;28;7083;-58
2022/06/12 07:19:06;;;;;;;;;;;;;;;26.92;37.77;94855.31;5039448;28;8914;-58
2022/06/12 07:21:32;;;;;;;;;;;;;;;26.93;38.24;94860.31;5045943;28;9502;-58
2022/06/12 07:24:05;;;;;;;;;;;;;;;26.94;38.06;94861.09;5041091;28;9364;-58
2022/06/12 07:26:43;;;;;;;;;;;;;;;26.95;37.92;94857.06;5037485;28;8040;-57
2022/06/12 07:29:10;;;;;;;;;;;;;;;26.93;38.32;94854.81;5051626;28;7393;-57
2022/06/12 07:31:40;;;;;;;;;;;;;;;26.96;38.54;94864.84;5045305;28;9333;-57
2022/06/12 07:34:08;;;;;;;;;;;;;;;26.96;39.86;94859.31;5042306;28;7515;-58
2022/06/12 07:36:37;;;;;;;;;;;;;;;27.01;43.87;94863.31;5049088;28;9316;-58
2022/06/12 07:39:19;;;;;;;;;;;;;;;27.01;41.92;94861.31;5048183;28;9195;-58
2022/06/12 07:41:48;;;;;;;;;;;;;;;27.00;40.90;94851.53;5067484;28;7313;-58
2022/06/12 07:44:20;;;;;;;;;;;;;;;27.01;41.28;94861.31;5045554;28;7013;-58
2022/06/12 07:46:54;;;;;;;;;;;;;;;26.99;41.34;94850.00;5054601;28;9177;-57
2022/06/12 07:49:33;;;;;;;;;;;;;;;27.00;40.75;94850.75;5060430;28;7465;-57
2022/06/12 07:52:08;;;;;;;;;;;;;;;27.00;40.97;94851.53;5048698;28;9297;-57
2022/06/12 07:54:36;;;;;;;;;;;;;;;27.01;40.95;94846.75;5044013;28;8720;-57
2022/06/12 07:57:05;;;;;;;;;;;;;;;27.01;40.39;94841.22;5046186;28;7238;-57
2022/06/12 07:59:31;;;;;;;;;;;;;;;27.03;40.76;94845.00;5050293;28;8754;-57
2022/06/12 08:02:00;;;;;;;;;;;;;;;27.03;40.90;94833.19;5043860;28;7233;-57
2022/06/12 08:04:30;;;;;;;;;;;;;;;27.02;41.12;94837.94;5041830;28;7830;-57
2022/06/12 08:06:58;;;;;;;;;;;;;;;27.04;41.20;94829.91;5061717;28;9085;-57
2022/06/12 08:09:24;;;;;;;;;;;;;;;27.05;41.62;94836.94;5033664;28;6852;-57
2022/06/12 08:11:52;;;;;;;;;;;;;;;27.06;40.95;94832.91;5048991;28;7029;-57
2022/06/12 08:14:20;;;;;;;;;;;;;;;27.04;40.57;94835.44;5058290;28;7114;-57
2022/06/12 08:16:49;;;;;;;;;;;;;;;27.07;40.85;94828.91;5053248;28;9089;-57
2022/06/12 08:22:05;;;;;;;;;;;;;;;27.08;40.97;94835.91;5056198;28;7140;-57
2022/06/12 08:24:32;;;;;;;;;;;;;;;27.09;40.47;94839.44;5042840;28;7877;-57
2022/06/12 08:27:00;;;;;;;;;;;;;;;27.07;39.79;94834.41;5033032;28;9537;-57
2022/06/12 08:29:26;;;;;;;;;;;;;;;27.10;39.83;94838.19;5035511;28;8851;-57
2022/06/12 08:32:01;;;;;;;;;;;;;;;27.11;39.69;94845.94;5044243;28;7173;-57
2022/06/12 08:34:40;;;;;;;;;;;;;;;27.11;39.70;94845.19;5050457;28;7140;-57
2022/06/12 08:37:22;;;;;;;;;;;;;;;27.11;39.76;94843.19;5037862;28;7780;-57
2022/06/12 08:39:49;;;;;;;;;;;;;;;27.12;39.98;94841.19;5036143;28;9425;-57
2022/06/12 08:42:18;;;;;;;;;;;;;;;27.12;39.76;94839.16;5045460;28;7090;-57
2022/06/12 08:44:54;;;;;;;;;;;;;;;27.13;39.81;94834.38;5055563;28;7177;-57
2022/06/12 08:47:32;;;;;;;;;;;;;;;27.13;40.24;94837.16;5037763;28;8752;-57
2022/06/12 08:50:35;;;;;;;;;;;;;;;27.13;39.91;94840.66;5042985;28;7246;-57
2022/06/12 08:53:14;;;;;;;;;;;;;;;27.15;40.21;94846.41;5034746;28;9273;-57
2022/06/12 08:55:59;;;;;;;;;;;;;;;27.18;40.24;94828.84;5043685;28;9459;-57
2022/06/12 08:58:36;;;;;;;;;;;;;;;27.18;39.52;94841.91;5041419;28;7598;-58
2022/06/12 09:01:03;;;;;;;;;;;;;;;27.17;39.33;94826.56;5062947;28;8247;-57
2022/06/12 09:03:50;;;;;;;;;;;;;;;27.20;40.21;94825.56;5048901;28;7264;-57
2022/06/12 09:06:41;;;;;;;;;;;;;;;27.18;39.66;94828.09;5051436;28;8948;-57
2022/06/12 09:09:21;;;;;;;;;;;;;;;27.20;39.68;94837.38;5059736;28;7027;-57
2022/06/12 09:12:34;;;;;;;;;;;;;;;27.20;39.15;94823.56;5042269;28;7181;-57
2022/06/12 09:15:04;;;;;;;;;;;;;;;27.21;39.01;94824.31;5042505;28;7039;-57
2022/06/12 09:18:16;;;;;;;;;;;;;;;27.21;39.00;94822.28;5051529;28;7623;-57
2022/06/12 09:21:01;;;;;;;;;;;;;;;27.21;38.98;94811.22;5005192;28;7204;-57
2022/06/12 09:23:28;;;;;;;;;;;;;;;27.22;38.38;94821.03;5006770;28;7274;-57
2022/06/12 09:26:32;;;;;;;;;;;;;;;27.22;38.00;94807.22;4988655;28;9477;-57
2022/06/12 09:29:28;;;;;;;;;;;;;;;27.21;38.25;94808.47;4992386;28;9034;-57
2022/06/12 09:32:05;;;;;;;;;;;;;;;27.22;37.30;94807.22;4991823;28;7223;-57
2022/06/12 09:35:08;;;;;;;;;;;;;;;27.21;37.96;94805.72;5009409;28;7166;-57
2022/06/12 09:38:29;;;;;;;;;;;;;;;27.22;37.21;94800.94;4985600;28;7070;-57
2022/06/12 09:41:13;;;;;;;;;;;;;;;27.21;36.90;94794.66;4981096;28;8993;-57
2022/06/12 09:44:08;;;;;;;;;;;;;;;27.21;36.83;94805.72;4997107;28;7390;-57
2022/06/12 09:47:04;;;;;;;;;;;;;;;27.21;36.75;94800.19;5002346;28;8796;-57
2022/06/12 09:49:59;;;;;;;;;;;;;;;27.23;37.28;94796.94;4991104;28;7247;-57
2022/06/12 09:52:39;;;;;;;;;;;;;;;27.23;36.84;94800.41;4966046;28;7205;-57
2022/06/12 09:55:26;;;;;;;;;;;;;;;27.25;36.79;94800.66;4970593;28;6956;-57
2022/06/12 09:58:29;;;;;;;;;;;;;;;27.25;37.64;94788.88;4970532;28;7167;-57
2022/06/12 10:01:11;;;;;;;;;;;;;;;27.24;37.14;94785.38;4907952;28;9437;-57
2022/06/12 10:03:39;;;;;;;;;;;;;;;27.26;37.32;94776.56;4909698;29;7650;-57
2022/06/12 10:06:48;;;;;;;;;;;;;;;27.27;37.58;94776.06;4924714;28;7241;-57
2022/06/12 10:09:36;;;;;;;;;;;;;;;27.27;37.59;94776.06;4930369;29;9100;-57
2022/06/12 10:12:12;;;;;;;;;;;;;;;27.26;37.66;94769.03;4919237;28;9100;-57
2022/06/12 10:14:56;;;;;;;;;;;;;;;27.29;37.46;94773.53;4928861;28;9510;-57
2022/06/12 10:17:32;;;;;;;;;;;;;;;27.28;38.32;94769.25;4915790;29;9233;-57
2022/06/12 10:20:20;;;;;;;;;;;;;;;27.30;37.79;94775.03;4931551;28;7394;-57
2022/06/12 10:22:50;;;;;;;;;;;;;;;27.29;37.57;94759.72;4929345;29;7093;-57
2022/06/12 10:25:33;;;;;;;;;;;;;;;27.30;38.17;94765.97;4899910;29;9216;-57
2022/06/12 10:28:05;;;;;;;;;;;;;;;27.33;38.50;94768.47;4924501;28;9451;-57
2022/06/12 10:30:44;;;;;;;;;;;;;;;27.33;38.04;94762.19;4974962;28;7504;-57
2022/06/12 10:33:30;;;;;;;;;;;;;;;27.33;37.55;94757.44;4997201;28;9058;-57
2022/06/12 10:36:24;;;;;;;;;;;;;;;27.34;37.89;94756.16;4990084;28;8955;-57
2022/06/12 10:38:50;;;;;;;;;;;;;;;27.36;37.93;94759.19;5044759;28;7495;-57
2022/06/12 10:41:27;;;;;;;;;;;;;;;27.35;37.59;94743.88;5051196;28;9122;-57
2022/06/12 10:44:29;;;;;;;;;;;;;;;27.38;37.58;94737.31;5035109;28;7204;-57
2022/06/12 10:47:20;;;;;;;;;;;;;;;27.39;38.35;94743.59;4971174;28;7565;-57
2022/06/12 10:49:49;;;;;;;;;;;;;;;27.38;38.06;94731.78;4955036;28;7346;-57
2022/06/12 10:52:21;;;;;;;;;;;;;;;27.39;38.26;94727.78;4971065;28;9697;-57
2022/06/12 10:54:51;;;;;;;;;;;;;;;27.40;37.48;94734.81;4990670;28;9714;-57
2022/06/12 10:57:50;;;;;;;;;;;;;;;27.40;37.39;94732.06;4975108;28;6993;-57
2022/06/12 11:00:26;;;;;;;;;;;;;;;27.41;37.89;94727.25;4955456;28;9467;-57
2022/06/12 11:03:21;;;;;;;;;;;;;;;27.41;37.56;94719.72;4950841;28;9692;-57
2022/06/12 11:06:25;;;;;;;;;;;;;;;27.43;37.68;94719.97;4952942;28;9068;-57
2022/06/12 11:09:13;;;;;;;;;;;;;;;27.45;37.83;94713.91;4988423;28;9338;-57
2022/06/12 11:12:18;;;;;;;;;;;;;;;27.45;38.02;94717.44;4972020;28;7140;-57
2022/06/12 11:14:49;;;;;;;;;;;;;;;27.48;37.74;94712.88;4974948;28;9185;-57
2022/06/12 11:17:51;;;;;;;;;;;;;;;27.48;38.12;94708.13;4970601;28;8818;-57
2022/06/12 11:20:45;;;;;;;;;;;;;;;27.49;38.06;94712.38;4989543;28;7374;-57
2022/06/12 11:23:44;;;;;;;;;;;;;;;27.50;37.96;94704.84;5010505;28;9116;-57
2022/06/12 11:26:23;;;;;;;;;;;;;;;27.50;37.57;94702.81;5073233;28;9096;-57
2022/06/12 11:29:12;;;;;;;;;;;;;;;27.52;37.79;94699.53;5053654;28;7504;-57
2022/06/12 11:31:51;;;;;;;;;;;;;;;27.53;37.67;94695.53;5049139;28;7244;-57
2022/06/12 11:35:14;;;;;;;;;;;;;;;27.54;37.95;94695.00;5051814;28;7304;-57
2022/06/12 11:38:06;;;;;;;;;;;;;;;27.55;38.06;94681.94;4971026;28;7023;-57
2022/06/12 11:41:12;;;;;;;;;;;;;;;27.56;37.79;94686.94;4974345;28;6994;-57
2022/06/12 11:43:51;;;;;;;;;;;;;;;27.57;37.26;94688.44;4924612;29;9155;-57
2022/06/12 11:46:32;;;;;;;;;;;;;;;27.59;37.02;94685.16;4912387;29;7029;-57
2022/06/12 11:49:10;;;;;;;;;;;;;;;27.60;37.44;94681.13;4915151;29;6986;-57
2022/06/12 11:51:44;;;;;;;;;;;;;;;27.60;37.24;94676.34;4920990;29;7627;-57
2022/06/12 11:54:18;;;;;;;;;;;;;;;27.61;37.46;94680.63;4896940;29;9385;-57
2022/06/12 11:57:00;;;;;;;;;;;;;;;27.63;37.70;94677.31;4923163;29;7117;-57
2022/06/12 11:59:29;;;;;;;;;;;;;;;27.66;37.88;94675.53;4916414;29;9136;-57
2022/06/12 12:02:03;;;;;;;;;;;;;;;27.64;37.24;94665.75;4927901;29;7259;-57
2022/06/12 12:04:44;;;;;;;;;;;;;;;27.66;37.26;94665.25;4912620;29;7241;-57
2022/06/12 12:07:32;;;;;;;;;;;;;;;27.68;37.16;94665.47;4915275;29;7219;-57
2022/06/12 12:10:10;;;;;;;;;;;;;;;27.70;38.02;94659.44;5009892;28;9079;-57
2022/06/12 12:12:56;;;;;;;;;;;;;;;27.71;37.61;94664.44;5001626;28;7128;-57
2022/06/12 12:15:33;;;;;;;;;;;;;;;27.73;37.91;94661.16;4996827;28;7058;-57
2022/06/12 12:18:39;;;;;;;;;;;;;;;27.73;37.65;94656.34;4996386;28;7180;-57
2022/06/12 12:21:14;;;;;;;;;;;;;;;27.75;37.64;94656.63;5054801;28;7331;-57
2022/06/12 12:23:48;;;;;;;;;;;;;;;27.76;36.73;94649.81;5068275;28;7443;-57
2022/06/12 12:26:25;;;;;;;;;;;;;;;27.77;37.40;94642.28;5045362;28;7009;-57
2022/06/12 12:29:05;;;;;;;;;;;;;;;27.79;37.44;94642.50;5054973;28;9326;-57
2022/06/12 12:31:56;;;;;;;;;;;;;;;27.80;37.61;94636.44;5057377;28;7631;-57
2022/06/12 12:34:27;;;;;;;;;;;;;;;27.81;36.99;94639.97;5070557;28;9102;-57
2022/06/12 12:42:35;;;;;;;;;;;;;;;27.83;37.65;94626.38;5050660;28;9215;-57
2022/06/12 12:45:15;;;;;;;;;;;;;;;27.84;37.50;94630.63;5049631;28;9493;-57
2022/06/12 12:47:42;;;;;;;;;;;;;;;27.86;37.77;94625.34;5054242;28;9241;-57
2022/06/12 12:50:31;;;;;;;;;;;;;;;27.89;37.69;94621.50;5056589;28;9336;-57
2022/06/12 12:53:06;;;;;;;;;;;;;;;27.90;37.40;94623.03;5055441;28;9195;-57
2022/06/12 12:55:38;;;;;;;;;;;;;;;27.90;37.32;94623.03;5069377;28;6993;-57
2022/06/12 12:58:21;;;;;;;;;;;;;;;27.91;37.63;94625.25;5051094;28;7169;-57
2022/06/12 13:00:48;;;;;;;;;;;;;;;27.93;38.03;94619.19;5036421;28;7629;-57
2022/06/12 13:04:09;;;;;;;;;;;;;;;27.95;37.60;94616.69;5071157;28;9225;-57
2022/06/12 13:07:01;;;;;;;;;;;;;;;27.96;37.46;94610.63;5011726;28;9443;-57
2022/06/12 13:09:44;;;;;;;;;;;;;;;27.99;37.93;94609.59;4998779;28;7906;-57
2022/06/12 13:12:27;;;;;;;;;;;;;;;28.00;37.46;94611.09;4995573;28;7265;-57
2022/06/12 13:15:31;;;;;;;;;;;;;;;28.01;37.50;94615.38;5012083;28;7918;-57
2022/06/12 13:18:14;;;;;;;;;;;;;;;28.02;37.94;94610.56;5011159;28;7221;-57
2022/06/12 13:20:52;;;;;;;;;;;;;;;28.04;37.84;94610.81;5012063;28;7512;-57
2022/06/12 13:23:47;;;;;;;;;;;;;;;28.04;37.37;94611.56;4992518;28;7234;-57
2022/06/12 13:26:28;;;;;;;;;;;;;;;28.05;37.60;94612.31;4971853;28;7423;-57
2022/06/12 13:29:00;;;;;;;;;;;;;;;28.07;37.97;94604.25;4966836;28;7522;-57
2022/06/12 13:31:33;;;;;;;;;;;;;;;28.07;37.60;94607.75;4967550;28;10240;-57
2022/06/12 13:34:03;;;;;;;;;;;;;;;28.08;37.52;94605.72;4952946;28;7258;-57
2022/06/12 13:36:40;;;;;;;;;;;;;;;28.08;37.73;94600.94;4951920;28;7249;-57
2022/06/12 13:39:45;;;;;;;;;;;;;;;28.10;37.72;94600.44;4963346;28;7228;-57
2022/06/12 13:42:27;;;;;;;;;;;;;;;28.12;37.87;94595.84;4969320;28;6992;-57
2022/06/12 13:45:16;;;;;;;;;;;;;;;28.14;37.34;94596.06;4943544;28;6992;-57
2022/06/12 13:48:19;;;;;;;;;;;;;;;28.17;37.30;94595.03;4937000;28;7251;-57
2022/06/12 13:51:16;;;;;;;;;;;;;;;28.20;37.32;94593.25;4926727;29;9094;-57
2022/06/12 13:53:45;;;;;;;;;;;;;;;28.20;37.75;94587.72;4936024;28;9113;-57
2022/06/12 13:56:15;;;;;;;;;;;;;;;28.19;37.55;94586.22;4951966;28;8981;-58
2022/06/12 13:58:50;;;;;;;;;;;;;;;28.22;37.49;94580.41;4932201;28;8490;-58
2022/06/12 14:01:31;;;;;;;;;;;;;;;28.22;38.19;94579.66;4934361;28;9052;-57
2022/06/12 14:04:21;;;;;;;;;;;;;;;28.24;37.40;94582.63;4970079;28;7953;-57
2022/06/12 14:06:49;;;;;;;;;;;;;;;28.24;37.34;94577.84;4979180;28;9067;-58
2022/06/12 14:09:18;;;;;;;;;;;;;;;28.24;37.30;94571.56;4971863;28;7638;-58
2022/06/12 14:11:47;;;;;;;;;;;;;;;28.24;37.66;94566.03;4968425;28;8936;-58
2022/06/12 14:14:48;;;;;;;;;;;;;;;28.24;37.57;94579.88;4979373;28;9078;-58
2022/06/12 14:17:21;;;;;;;;;;;;;;;28.28;37.41;94581.06;5031335;28;8589;-58
2022/06/12 14:20:13;;;;;;;;;;;;;;;28.32;37.77;94572.47;5040526;28;7147;-58
2022/06/12 14:22:59;;;;;;;;;;;;;;;28.32;37.61;94580.75;5042257;28;6975;-58
2022/06/12 14:25:51;;;;;;;;;;;;;;;28.35;37.84;94579.72;5053099;28;9069;-58
2022/06/12 14:28:19;;;;;;;;;;;;;;;28.36;37.54;94575.69;5039264;28;8184;-58
2022/06/12 14:30:56;;;;;;;;;;;;;;;28.38;38.01;94577.94;5049726;28;7664;-58